Terminal Aerodrome Forecast
Issued by NWS Brownsville, TX

Current Version | Previous Version | Text Only | Print | Product List | Glossary Off
Versions: 1 2 3 4 5 6 7 8 9 10 11 12 13 14 15 16

000
FTUS44 KBRO 291500 AAA
TAFBRO
TAF AMD
KBRO 291534Z 2916/3012 06008KT P6SM -RA BKN025 BKN080
     FM291800 15012KT P6SM VCSH OVC030
      TEMPO 2918/2922 5SM -TSRA BR BKN025CB
     FM300000 12011KT P6SM VCSH BKN030
     FM300300 13007KT P6SM VCSH OVC050=

USA.gov is the U.S. government's official web portal to all federal, state and local government web resources and services.